Time;durP1;ratioP1;P1;durP2;ratioP2;P2;SDS_P1;SDS_P2;PMS_P1;PMS_P2;Temp;Humidity;BMP_temperature;BMP_pressure;BME280_temperature;BME280_humidity;BME280_pressure;Samples;Min_cycle;Max_cycle;Signal;HPM_P1;HPM_P2
2022/09/18 00:02:21;;;;;;;5.10;1.00;;;;;;;8.49;68.74;97939.49;105988;1271;22539;-84
2022/09/18 00:04:55;;;;;;;6.80;1.20;;;;;;;8.55;68.72;97939.92;106265;1271;22550;-84
2022/09/18 00:07:25;;;;;;;7.00;1.70;;;;;;;8.62;68.79;97939.37;106180;1271;22587;-82
2022/09/18 00:09:52;;;;;;;4.70;0.80;;;;;;;8.67;68.75;97940.54;106107;1271;24242;-80
2022/09/18 00:12:27;;;;;;;3.80;1.00;;;;;;;8.73;68.81;97940.70;106031;1271;24362;-84
2022/09/18 00:14:54;;;;;;;3.90;0.90;;;;;;;8.78;68.75;97942.05;106057;1271;25359;-79
2022/09/18 00:17:21;;;;;;;3.80;1.00;;;;;;;8.81;68.58;97939.02;106015;1271;23884;-78
2022/09/18 00:19:54;;;;;;;3.40;0.70;;;;;;;8.84;68.77;97942.66;106087;1274;24227;-79
2022/09/18 00:22:21;;;;;;;3.10;0.70;;;;;;;8.87;68.71;97944.64;105961;1274;22570;-83
2022/09/18 00:24:54;;;;;;;5.50;0.70;;;;;;;8.92;68.69;97942.52;105974;1274;25248;-80
2022/09/18 00:27:27;;;;;;;4.50;0.60;;;;;;;8.97;68.59;97943.71;106050;1271;22533;-81
2022/09/18 00:30:09;;;;;;;3.90;0.90;;;;;;;9.03;68.55;97943.95;105986;1271;22652;-82
2022/09/18 00:32:42;;;;;;;2.00;0.50;;;;;;;9.08;68.77;97940.85;106346;1271;26709;-79
2022/09/18 00:35:14;;;;;;;5.00;0.50;;;;;;;9.12;68.69;97942.83;106260;1271;25236;-79
2022/09/18 00:37:52;;;;;;;2.50;0.40;;;;;;;9.15;68.82;97942.54;105978;1271;25268;-83
2022/09/18 00:40:22;;;;;;;3.10;0.60;;;;;;;9.17;68.63;97936.84;106000;1274;22840;-85
2022/09/18 00:42:52;;;;;;;4.20;0.50;;;;;;;9.20;68.75;97942.48;105860;1275;22612;-79
2022/09/18 00:46:05;;;;;;;;;;;;;;;;;;;;;
2022/09/18 00:49:29;;;;;;;4.20;0.40;;;;;;;9.30;68.83;97936.09;105792;1279;22540;-80
2022/09/18 00:52:30;;;;;;;2.50;0.30;;;;;;;9.38;68.75;97940.20;105726;1279;22580;-80
2022/09/18 00:55:08;;;;;;;1.20;0.30;;;;;;;9.41;68.89;97937.82;105737;1279;22622;-79
2022/09/18 00:57:53;;;;;;;3.80;0.40;;;;;;;9.46;68.80;97932.42;105626;1280;22795;-84
2022/09/18 01:00:23;;;;;;;2.90;0.50;;;;;;;9.46;68.75;97933.68;105784;1279;22664;-82
2022/09/18 01:03:20;;;;;;;;;;;;;;;;;;;;;
2022/09/18 01:06:49;;;;;;;2.30;0.40;;;;;;;9.42;68.89;97929.99;105764;1280;22557;-85
2022/09/18 01:09:42;;;;;;;1.80;0.50;;;;;;;9.40;68.79;97921.08;105671;1279;24094;-80
2022/09/18 01:12:39;;;;;;;2.00;0.30;;;;;;;9.39;68.75;97922.73;105751;1281;22611;-84
2022/09/18 01:15:40;;;;;;;3.00;0.40;;;;;;;9.41;68.68;97920.63;105597;1280;22557;-84
2022/09/18 01:18:27;;;;;;;1.70;0.30;;;;;;;9.41;68.77;97918.98;105647;1280;25350;-79
2022/09/18 01:21:06;;;;;;;2.20;0.40;;;;;;;9.41;68.76;97921.52;105611;1280;22567;-80
2022/09/18 01:24:56;;;;;;;0.80;0.30;;;;;;;9.40;68.85;97924.08;105562;1280;24281;-84
2022/09/18 01:27:57;;;;;;;1.70;0.40;;;;;;;9.37;68.95;97929.46;105713;1280;24256;-83
2022/09/18 01:30:39;;;;;;;2.50;0.40;;;;;;;9.38;69.01;97935.30;105773;1280;22552;-84
2022/09/18 01:33:40;;;;;;;;;;;;;;;;;;;;;
2022/09/18 01:36:30;;;;;;;;;;;;;;;;;;;;;
2022/09/18 01:39:25;;;;;;;1.40;0.20;;;;;;;9.27;68.91;97930.54;105755;1280;25318;-80
2022/09/18 01:42:09;;;;;;;2.10;0.20;;;;;;;9.24;68.83;97930.79;105656;1280;24219;-82
2022/09/18 01:45:13;;;;;;;0.60;0.10;;;;;;;9.23;69.02;97934.23;105745;1280;22631;-82
2022/09/18 01:47:53;;;;;;;2.60;0.30;;;;;;;9.23;69.13;97929.47;105653;1281;25337;-77
2022/09/18 01:50:29;;;;;;;0.30;0.20;;;;;;;9.19;69.06;97931.86;105658;1281;23983;-85
2022/09/18 01:53:36;;;;;;;;;;;;;;;;;;;;;
2022/09/18 01:57:31;;;;;;;;;;;;;;;;;;;;;
2022/09/18 02:00:34;;;;;;;;;;;;;;;;;;;;;
2022/09/18 02:03:25;;;;;;;0.80;0.20;;;;;;;9.12;69.15;97933.77;105719;1277;22556;-81
2022/09/18 02:06:25;;;;;;;0.40;0.20;;;;;;;9.09;69.13;97937.34;105719;1277;24438;-83
2022/09/18 02:09:13;;;;;;;0.50;0.10;;;;;;;9.06;69.26;97937.95;105554;1277;25518;-79
2022/09/18 02:12:20;;;;;;;;;;;;;;;;;;;;;
2022/09/18 02:15:08;;;;;;;1.40;0.20;;;;;;;9.10;69.23;97923.28;105849;1277;22539;-83
2022/09/18 02:17:59;;;;;;;0.40;0.20;;;;;;;9.12;69.42;97926.66;105713;1277;22603;-80
2022/09/18 02:20:51;;;;;;;;;;;;;;;;;;;;;
2022/09/18 02:23:43;;;;;;;0.90;0.30;;;;;;;9.15;69.28;97922.84;105765;1278;25385;-79
2022/09/18 02:26:35;;;;;;;0.60;0.20;;;;;;;9.13;69.58;97921.77;105689;1280;24452;-82
2022/09/18 02:29:10;;;;;;;1.10;0.20;;;;;;;9.14;69.65;97912.59;105764;1279;25607;-80
2022/09/18 02:32:10;;;;;;;2.30;0.40;;;;;;;9.13;69.45;97912.35;105857;1278;22993;-85
2022/09/18 02:35:01;;;;;;;1.20;0.20;;;;;;;9.09;69.51;97909.69;105764;1277;25612;-80
2022/09/18 02:38:14;;;;;;;0.60;0.20;;;;;;;9.06;69.43;97906.20;105901;1274;25385;-80
2022/09/18 02:41:06;;;;;;;0.60;0.10;;;;;;;9.07;69.62;97904.69;106301;1271;22531;-86
2022/09/18 02:43:53;;;;;;;1.30;0.20;;;;;;;9.03;69.57;97900.02;106064;1271;22700;-85
2022/09/18 02:46:58;;;;;;;1.10;0.20;;;;;;;8.99;69.63;97903.11;105959;1271;23903;-79
2022/09/18 02:49:47;;;;;;;1.50;0.30;;;;;;;8.93;69.87;97900.84;106369;1271;25373;-79
2022/09/18 02:52:55;;;;;;;;;;;;;;;;;;;;;
2022/09/18 02:55:56;;;;;;;0.60;0.30;;;;;;;8.87;69.94;97910.11;106381;1271;22633;-80
2022/09/18 02:58:41;;;;;;;0.40;0.20;;;;;;;8.88;69.93;97907.54;106254;1271;25293;-78
2022/09/18 03:01:26;;;;;;;1.90;0.20;;;;;;;8.91;70.03;97905.28;106045;1271;24349;-80
2022/09/18 03:04:04;;;;;;;1.70;0.40;;;;;;;8.98;70.13;97906.21;106136;1271;25235;-79
2022/09/18 03:06:43;;;;;;;0.80;0.30;;;;;;;9.03;70.18;97905.58;105997;1274;23940;-82
2022/09/18 03:09:15;;;;;;;2.00;0.40;;;;;;;9.00;70.16;97906.91;106050;1271;25235;-80
2022/09/18 03:11:52;;;;;;;1.90;0.30;;;;;;;8.97;70.24;97904.15;106019;1273;22565;-79
2022/09/18 03:14:27;;;;;;;1.60;0.40;;;;;;;8.97;70.43;97907.48;106274;1271;22809;-85
2022/09/18 03:16:58;;;;;;;2.00;0.50;;;;;;;8.97;70.34;97908.77;106283;1271;25651;-86
2022/09/18 03:19:46;;;;;;;1.20;0.30;;;;;;;8.93;70.26;97904.45;106110;1273;24228;-80
2022/09/18 03:22:19;;;;;;;0.90;0.30;;;;;;;8.93;70.38;97902.34;106269;1271;25588;-81
2022/09/18 03:25:04;;;;;;;1.20;0.30;;;;;;;8.98;70.58;97899.80;106269;1271;24202;-86
2022/09/18 03:27:43;;;;;;;1.20;0.40;;;;;;;9.04;70.52;97899.11;106275;1271;25516;-80
2022/09/18 03:30:19;;;;;;;1.30;0.40;;;;;;;9.11;70.49;97905.25;105973;1274;25501;-78
2022/09/18 03:32:49;;;;;;;1.30;0.50;;;;;;;9.15;70.51;97904.32;106243;1271;25245;-78
2022/09/18 03:35:21;;;;;;;2.70;0.50;;;;;;;9.12;70.38;97903.02;105976;1271;22535;-82
2022/09/18 03:37:53;;;;;;;1.00;0.30;;;;;;;9.12;70.43;97903.72;106042;1271;22565;-80
2022/09/18 03:40:24;;;;;;;2.50;0.50;;;;;;;9.10;70.34;97908.38;105968;1272;23895;-81
2022/09/18 03:42:59;;;;;;;0.80;0.30;;;;;;;9.07;70.48;97907.02;106070;1271;25501;-79
2022/09/18 03:45:33;;;;;;;2.00;0.40;;;;;;;9.07;70.35;97901.48;106035;1271;25266;-79
2022/09/18 03:48:02;;;;;;;1.10;0.40;;;;;;;9.09;70.60;97898.69;106020;1273;22559;-81
2022/09/18 03:50:29;;;;;;;2.00;0.50;;;;;;;9.10;70.57;97902.16;106302;1271;22544;-84
2022/09/18 03:53:17;;;;;;;;;;;;;;;;;;;;;
2022/09/18 03:55:49;;;;;;;1.70;0.60;;;;;;;9.10;70.58;97896.30;106027;1274;22613;-81
2022/09/18 03:58:50;;;;;;;1.60;0.40;;;;;;;9.05;70.61;97901.86;106136;1271;22556;-80
2022/09/18 04:01:31;;;;;;;2.10;0.40;;;;;;;9.01;70.66;97903.63;105975;1274;22540;-81
2022/09/18 04:04:22;;;;;;;2.00;0.60;;;;;;;8.95;70.68;97906.23;105971;1271;25286;-79
2022/09/18 04:07:40;;;;;;;1.90;0.40;;;;;;;8.91;70.98;97910.48;105899;1274;24253;-81
2022/09/18 04:10:41;;;;;;;1.10;0.30;;;;;;;8.92;70.92;97910.73;106125;1273;22534;-84
2022/09/18 04:13:20;;;;;;;1.50;0.30;;;;;;;8.97;70.94;97914.95;105935;1276;22694;-85
2022/09/18 04:15:49;;;;;;;2.80;0.50;;;;;;;8.98;70.90;97915.23;105947;1274;22699;-78
2022/09/18 04:18:35;;;;;;;3.10;0.60;;;;;;;8.98;71.01;97918.11;106042;1274;24281;-82
2022/09/18 04:21:06;;;;;;;2.30;0.60;;;;;;;8.99;71.21;97912.82;105971;1274;22741;-81
2022/09/18 04:23:35;;;;;;;2.30;0.70;;;;;;;9.02;70.98;97915.73;106156;1271;24413;-83
2022/09/18 04:26:14;;;;;;;1.90;0.60;;;;;;;9.03;71.29;97914.77;106094;1271;25531;-80
2022/09/18 04:28:52;;;;;;;2.40;0.60;;;;;;;9.00;71.05;97913.80;105999;1271;24211;-79
2022/09/18 04:31:24;;;;;;;1.20;0.40;;;;;;;8.98;71.15;97910.45;106026;1272;22564;-80
2022/09/18 04:33:53;;;;;;;0.80;0.30;;;;;;;8.99;71.17;97913.04;106012;1271;23137;-79
2022/09/18 04:36:35;;;;;;;2.50;0.50;;;;;;;9.02;71.35;97912.97;106089;1271;22528;-80
2022/09/18 04:39:07;;;;;;;2.50;0.70;;;;;;;9.04;71.16;97911.17;106025;1271;22553;-79
2022/09/18 04:41:44;;;;;;;2.60;0.60;;;;;;;9.08;71.27;97915.28;105977;1271;25350;-80
2022/09/18 04:44:26;;;;;;;2.20;0.50;;;;;;;9.08;71.12;97915.45;105970;1271;25539;-80
2022/09/18 04:47:11;;;;;;;3.10;0.60;;;;;;;9.06;71.20;97918.79;106020;1271;25465;-80
2022/09/18 04:49:58;;;;;;;1.50;0.60;;;;;;;9.08;71.40;97913.97;106068;1271;22547;-79
2022/09/18 04:52:58;;;;;;;1.20;0.40;;;;;;;9.11;71.34;97921.02;106033;1271;22537;-81
2022/09/18 04:55:34;;;;;;;1.40;0.30;;;;;;;9.13;71.53;97919.05;106025;1271;22617;-80
2022/09/18 04:58:10;;;;;;;1.20;0.40;;;;;;;9.16;71.46;97920.96;106200;1271;22556;-79
2022/09/18 05:01:17;;;;;;;;;;;;;;;;;;;;;
2022/09/18 05:03:49;;;;;;;1.90;0.30;;;;;;;9.19;71.44;97917.50;106038;1271;25502;-80
2022/09/18 05:06:28;;;;;;;1.60;0.50;;;;;;;9.21;71.71;97914.14;106047;1271;22694;-80
2022/09/18 05:08:59;;;;;;;1.70;0.60;;;;;;;9.20;71.60;97917.42;105984;1271;25348;-80
2022/09/18 05:11:39;;;;;;;6.70;0.50;;;;;;;9.18;71.74;97921.35;106067;1271;22528;-83
2022/09/18 05:14:20;;;;;;;1.00;0.30;;;;;;;9.21;71.75;97929.61;106134;1271;25547;-80
2022/09/18 05:17:20;;;;;;;1.10;0.20;;;;;;;9.24;71.74;97925.48;106220;1271;22548;-87
2022/09/18 05:20:57;;;;;;;1.50;0.20;;;;;;;9.28;71.80;97931.33;106321;1271;22845;-83
2022/09/18 05:23:48;;;;;;;;;;;;;;;;;;;;;
2022/09/18 05:26:29;;;;;;;;;;;;;;;;;;;;;
2022/09/18 05:29:01;;;;;;;0.80;0.30;;;;;;;9.34;72.06;97927.08;106175;1271;24294;-85
2022/09/18 05:31:40;;;;;;;;;;;;;;;;;;;;;
2022/09/18 05:34:21;;;;;;;0.80;0.20;;;;;;;9.40;71.86;97924.58;106076;1271;22561;-86
2022/09/18 05:36:54;;;;;;;0.40;0.20;;;;;;;9.43;72.09;97920.64;106257;1271;22719;-84
2022/09/18 05:39:48;;;;;;;;;;;;;;;;;;;;;
2022/09/18 05:42:55;;;;;;;;;;;;;;;;;;;;;
2022/09/18 05:45:42;;;;;;;1.20;0.30;;;;;;;9.54;72.07;97929.46;106198;1271;22535;-80
2022/09/18 05:48:47;;;;;;;;;;;;;;;;;;;;;
2022/09/18 05:51:43;;;;;;;;;;;;;;;;;;;;;
2022/09/18 05:54:24;;;;;;;1.30;0.20;;;;;;;9.62;72.35;97929.27;106403;1271;22534;-82
2022/09/18 05:57:14;;;;;;;1.50;0.30;;;;;;;9.65;72.33;97931.89;106288;1271;22541;-84
2022/09/18 05:59:54;;;;;;;0.40;0.20;;;;;;;9.70;72.37;97933.98;106305;1271;22567;-84
2022/09/18 06:02:30;;;;;;;0.60;0.20;;;;;;;9.74;72.33;97928.79;106066;1271;24369;-82
2022/09/18 06:05:02;;;;;;;2.00;0.20;;;;;;;9.80;72.35;97934.53;106001;1271;24290;-82
2022/09/18 06:07:39;;;;;;;0.80;0.20;;;;;;;9.86;72.25;97937.54;106291;1271;25348;-79
2022/09/18 06:10:32;;;;;;;0.40;0.10;;;;;;;9.96;72.07;97937.94;106322;1271;22691;-79
2022/09/18 06:14:07;;;;;;;0.60;0.20;;;;;;;10.00;72.13;97942.11;106319;1271;25577;-85
2022/09/18 06:16:52;;;;;;;2.70;0.30;;;;;;;10.03;71.98;97938.55;106267;1271;24098;-79
2022/09/18 06:19:35;;;;;;;1.00;0.20;;;;;;;10.01;72.20;97947.06;106308;1271;22766;-84
2022/09/18 06:23:12;;;;;;;;;;;;;;;;;;;;;
2022/09/18 06:25:44;;;;;;;1.90;0.20;;;;;;;10.15;72.17;97946.70;106330;1271;22567;-80
2022/09/18 06:28:37;;;;;;;1.10;0.10;;;;;;;10.24;72.02;97949.34;106109;1271;23306;-81
2022/09/18 06:31:13;;;;;;;1.00;0.20;;;;;;;10.30;72.08;97950.20;105950;1271;23932;-79
2022/09/18 06:33:49;;;;;;;0.30;0.10;;;;;;;10.42;72.17;97950.60;106153;1273;25779;-78
2022/09/18 06:36:27;;;;;;;1.40;0.30;;;;;;;10.51;72.21;97957.23;106188;1275;22553;-78
2022/09/18 06:39:06;;;;;;;0.50;0.20;;;;;;;10.62;72.31;97954.14;106040;1274;25297;-79
2022/09/18 06:41:36;;;;;;;0.40;0.20;;;;;;;10.65;72.00;97957.60;105816;1274;24176;-78
2022/09/18 06:44:16;;;;;;;1.30;0.10;;;;;;;10.68;72.24;97954.28;106008;1271;24237;-82
2022/09/18 06:46:53;;;;;;;0.40;0.10;;;;;;;10.80;71.93;97955.81;106171;1274;22541;-82
2022/09/18 06:49:34;;;;;;;0.80;0.20;;;;;;;10.99;71.91;97952.52;106079;1274;23956;-83
2022/09/18 06:52:01;;;;;;;0.80;0.30;;;;;;;11.23;71.87;97953.16;106074;1271;26487;-85
2022/09/18 06:54:40;;;;;;;0.60;0.20;;;;;;;11.35;71.93;97954.16;106152;1273;25725;-78
2022/09/18 06:57:18;;;;;;;0.50;0.10;;;;;;;11.35;71.66;97956.50;106041;1273;22618;-84
2022/09/18 06:59:54;;;;;;;1.30;0.10;;;;;;;11.31;71.60;97954.62;106295;1271;22535;-81
2022/09/18 07:02:25;;;;;;;0.30;0.20;;;;;;;11.32;71.97;97959.83;105963;1274;25483;-77
2022/09/18 07:05:00;;;;;;;0.60;0.20;;;;;;;11.28;71.79;97961.32;105914;1273;22545;-85
2022/09/18 07:07:35;;;;;;;0.80;0.30;;;;;;;11.22;71.95;97957.39;105907;1272;25564;-81
2022/09/18 07:10:03;;;;;;;1.00;0.30;;;;;;;11.25;72.13;97960.30;105895;1271;24402;-81
2022/09/18 07:12:39;;;;;;;2.60;0.60;;;;;;;11.27;72.22;97966.70;105999;1274;24211;-84
2022/09/18 07:15:07;;;;;;;3.20;1.10;;;;;;;11.28;72.02;97966.62;106187;1273;25457;-79
2022/09/18 07:17:38;;;;;;;2.60;0.70;;;;;;;11.31;72.17;97967.77;105902;1272;22537;-79
2022/09/18 07:20:28;;;;;;;1.60;0.50;;;;;;;11.33;72.23;97968.86;105977;1271;24294;-82
2022/09/18 07:23:02;;;;;;;4.10;1.60;;;;;;;11.29;72.01;97971.52;105961;1271;22546;-84
2022/09/18 07:25:46;;;;;;;2.80;1.40;;;;;;;11.27;72.31;97976.91;106056;1274;24278;-79
2022/09/18 07:28:18;;;;;;;1.20;0.40;;;;;;;11.23;72.22;97978.28;106037;1274;22769;-83
2022/09/18 07:31:05;;;;;;;1.90;0.70;;;;;;;10.99;71.85;97987.66;106187;1274;25699;-80
2022/09/18 07:33:32;;;;;;;1.40;0.30;;;;;;;10.76;72.30;97992.41;106094;1273;22603;-78
2022/09/18 07:36:02;;;;;;;2.80;0.10;;;;;;;10.54;72.23;97993.31;105961;1274;24484;-80
2022/09/18 07:38:36;;;;;;;2.30;0.30;;;;;;;10.27;72.13;97994.98;106354;1272;22620;-83
2022/09/18 07:41:09;;;;;;;3.00;0.30;;;;;;;10.07;72.45;98001.66;106000;1271;25433;-76
2022/09/18 07:44:25;;;;;;;1.00;0.20;;;;;;;9.95;72.79;97997.85;106026;1273;23938;-82
2022/09/18 07:47:33;;;;;;;1.00;0.20;;;;;;;9.95;72.84;98003.02;106111;1274;22714;-78
2022/09/18 07:50:14;;;;;;;0.50;0.20;;;;;;;9.89;73.28;98018.53;106296;1271;22818;-85
2022/09/18 07:53:00;;;;;;;2.10;0.40;;;;;;;9.80;73.31;98016.46;106075;1274;24315;-84
2022/09/18 07:55:35;;;;;;;1.70;0.40;;;;;;;9.77;73.51;98023.47;106075;1273;22633;-80
2022/09/18 07:58:08;;;;;;;1.40;0.50;;;;;;;9.77;73.53;98024.71;105966;1274;22540;-83
2022/09/18 08:00:55;;;;;;;0.60;0.20;;;;;;;9.79;73.63;98026.88;106238;1272;23330;-79
2022/09/18 08:03:28;;;;;;;2.70;0.40;;;;;;;9.77;73.49;98034.70;105973;1274;22556;-83
2022/09/18 08:07:03;;;;;;;2.20;0.40;;;;;;;9.64;73.54;98032.55;106116;1274;22525;-82
2022/09/18 08:09:38;;;;;;;4.40;0.80;;;;;;;9.54;73.58;98036.30;106032;1274;22806;-83
2022/09/18 08:12:22;;;;;;;3.20;0.50;;;;;;;9.53;73.66;98037.60;106068;1274;22577;-85
2022/09/18 08:15:37;;;;;;;3.10;0.60;;;;;;;9.58;73.75;98041.04;106160;1272;25498;-80
2022/09/18 08:18:15;;;;;;;2.80;0.60;;;;;;;9.61;73.79;98038.48;106199;1274;25575;-82
2022/09/18 08:21:03;;;;;;;4.70;0.80;;;;;;;9.63;73.73;98041.52;106114;1272;22547;-87
2022/09/18 08:23:47;;;;;;;3.30;0.50;;;;;;;9.64;73.74;98043.70;106001;1272;22757;-81
2022/09/18 08:27:03;;;;;;;;;;;;;;;;;;;;;
2022/09/18 08:29:33;;;;;;;2.50;0.40;;;;;;;9.73;73.91;98049.38;106175;1271;22557;-86
2022/09/18 08:32:19;;;;;;;4.00;0.60;;;;;;;9.66;73.86;98057.95;106103;1271;25276;-80
2022/09/18 08:35:02;;;;;;;3.80;0.50;;;;;;;9.68;73.85;98055.88;106110;1271;25593;-82
2022/09/18 08:37:48;;;;;;;2.90;0.50;;;;;;;9.69;73.75;98057.33;106123;1273;25486;-84
2022/09/18 08:40:58;;;;;;;3.20;0.70;;;;;;;9.70;73.63;98062.77;106140;1274;22740;-79
2022/09/18 08:44:17;;;;;;;4.50;0.60;;;;;;;9.68;73.61;98064.53;106047;1273;22537;-84
2022/09/18 08:47:29;;;;;;;;;;;;;;;;;;;;;
2022/09/18 08:50:49;;;;;;;3.40;0.60;;;;;;;9.77;73.84;98073.55;106057;1273;25336;-85
2022/09/18 08:53:56;;;;;;;5.10;0.80;;;;;;;9.84;73.66;98073.84;106224;1273;22549;-84
2022/09/18 08:56:46;;;;;;;4.10;0.90;;;;;;;9.91;73.93;98072.36;106294;1274;22657;-84
2022/09/18 08:59:45;;;;;;;4.10;0.90;;;;;;;10.09;73.69;98079.06;105941;1273;22560;-80
2022/09/18 09:02:40;;;;;;;5.00;1.00;;;;;;;10.23;73.63;98091.39;106087;1273;25519;-84
2022/09/18 09:06:04;;;;;;;5.70;1.30;;;;;;;10.27;73.27;98085.30;105910;1273;25276;-87
2022/09/18 09:09:21;;;;;;;;;;;;;;;;;;;;;
2022/09/18 09:12:33;;;;;;;8.20;1.40;;;;;;;10.61;73.50;98090.57;105646;1282;22751;-88
2022/09/18 09:16:22;;;;;;;7.10;1.50;;;;;;;10.59;73.17;98095.17;105618;1281;22549;-80
2022/09/18 09:19:31;;;;;;;5.90;1.00;;;;;;;10.40;72.84;98101.32;105307;1281;22736;-83
2022/09/18 09:23:07;;;;;;;4.00;1.10;;;;;;;10.28;73.30;98102.52;105612;1282;22701;-83
2022/09/18 09:26:20;;;;;;;7.50;1.60;;;;;;;10.33;73.44;98107.07;105587;1282;22667;-83
2022/09/18 09:29:18;;;;;;;7.50;2.20;;;;;;;10.45;73.50;98107.39;105055;1287;22566;-84
2022/09/18 09:32:28;;;;;;;7.00;1.60;;;;;;;10.58;73.58;98108.42;105103;1285;22716;-82
2022/09/18 09:36:02;;;;;;;5.80;1.30;;;;;;;10.59;73.33;98113.36;105117;1285;25479;-79
2022/09/18 09:39:19;;;;;;;7.00;1.40;;;;;;;10.52;73.44;98111.76;105028;1288;22573;-77
2022/09/18 09:42:57;;;;;;;6.50;2.00;;;;;;;10.60;73.36;98111.84;105087;1288;26473;-78
2022/09/18 09:46:16;;;;;;;;;;;;;;;;;;;;;
2022/09/18 09:50:22;;;;;;;6.70;1.40;;;;;;;10.51;73.53;98126.07;105114;1279;25311;-81
2022/09/18 09:52:30;;;;;;;8.00;1.80;;;;;;;10.64;73.35;98131.59;104951;1287;25584;-79
2022/09/18 09:55:33;;;;;;;9.10;2.30;;;;;;;10.70;73.27;98130.36;104919;1288;22762;-77
2022/09/18 09:58:52;;;;;;;10.70;1.80;;;;;;;10.83;73.36;98130.60;104773;1287;25295;-78
2022/09/18 10:02:25;;;;;;;;;;;;;;;;;;;;;
2022/09/18 10:05:39;;;;;;;10.90;2.70;;;;;;;11.13;72.87;98136.02;104272;1290;24363;-78
2022/09/18 10:08:55;;;;;;;8.90;2.20;;;;;;;11.23;72.96;98139.24;104583;1290;22756;-77
2022/09/18 10:11:51;;;;;;;7.10;1.60;;;;;;;11.43;72.91;98140.45;104478;1291;22579;-80
2022/09/18 10:14:43;;;;;;;8.90;1.90;;;;;;;11.48;72.94;98144.45;104616;1290;22976;-80
2022/09/18 10:17:14;;;;;;;11.20;2.20;;;;;;;11.39;72.56;98144.32;104685;1290;24285;-78
2022/09/18 10:19:53;;;;;;;8.50;2.00;;;;;;;11.23;72.40;98147.38;104614;1290;22572;-83
2022/09/18 10:22:27;;;;;;;6.80;1.30;;;;;;;11.09;72.51;98151.98;104577;1290;24231;-83
2022/09/18 10:25:44;;;;;;;9.30;1.40;;;;;;;11.00;72.63;98146.41;104642;1290;22557;-82
2022/09/18 10:28:28;;;;;;;;;;;;;;;;;;;;;
2022/09/18 10:31:02;;;;;;;7.30;1.80;;;;;;;10.99;72.96;98146.50;105284;1282;23312;-76
2022/09/18 10:33:36;;;;;;;7.10;1.30;;;;;;;11.12;72.94;98144.48;105285;1281;22547;-78
2022/09/18 10:36:21;;;;;;;8.10;1.30;;;;;;;11.33;73.06;98146.64;105884;1274;22570;-79
2022/09/18 10:39:45;;;;;;;11.20;2.10;;;;;;;11.55;72.86;98140.98;105943;1274;25519;-78
2022/09/18 10:42:38;;;;;;;11.20;2.20;;;;;;;11.71;72.22;98144.28;105957;1274;22566;-78
2022/09/18 10:45:47;;;;;;;;;;;;;;;;;;;;;
2022/09/18 10:48:35;;;;;;;6.50;1.20;;;;;;;12.30;72.02;98153.52;106127;1274;26481;-78
2022/09/18 10:51:17;;;;;;;13.20;1.80;;;;;;;12.49;71.93;98157.97;105999;1274;25472;-81
2022/09/18 10:54:30;;;;;;;8.80;1.80;;;;;;;12.80;71.54;98154.81;105875;1274;25668;-81
2022/09/18 10:57:57;;;;;;;8.60;1.40;;;;;;;13.09;71.25;98151.64;105942;1276;22717;-80
2022/09/18 11:00:48;;;;;;;8.80;1.50;;;;;;;13.29;71.44;98146.85;106030;1273;25571;-84
2022/09/18 11:03:39;;;;;;;7.90;1.60;;;;;;;13.54;71.73;98147.47;105926;1274;24231;-79
2022/09/18 11:06:22;;;;;;;7.60;1.30;;;;;;;13.61;71.65;98147.54;105951;1274;23569;-83
2022/09/18 11:09:11;;;;;;;9.90;1.40;;;;;;;13.34;71.08;98157.46;105848;1274;23944;-81
2022/09/18 11:11:45;;;;;;;8.60;1.60;;;;;;;12.96;70.98;98164.23;105864;1274;24249;-79
2022/09/18 11:14:43;;;;;;;10.20;2.00;;;;;;;12.78;71.16;98172.86;106747;1274;25359;-81
2022/09/18 11:17:42;;;;;;;9.80;1.60;;;;;;;12.80;71.48;98167.20;106259;1274;24169;-80
2022/09/18 11:20:24;;;;;;;5.90;1.10;;;;;;;13.00;71.29;98165.95;106209;1275;22547;-81
2022/09/18 11:23:40;;;;;;;7.90;1.40;;;;;;;13.12;71.12;98161.59;106353;1271;22692;-79
2022/09/18 11:26:28;;;;;;;8.30;1.40;;;;;;;13.26;70.99;98156.30;105870;1274;22597;-82
2022/09/18 11:29:26;;;;;;;9.30;1.30;;;;;;;13.32;70.43;98151.24;105983;1275;22536;-82
2022/09/18 11:32:10;;;;;;;9.80;1.30;;;;;;;13.37;70.60;98150.03;105985;1274;23326;-83
2022/09/18 11:35:15;;;;;;;5.70;1.10;;;;;;;13.64;70.97;98146.83;106277;1271;25432;-79
2022/09/18 11:38:05;;;;;;;10.00;1.20;;;;;;;13.82;69.92;98144.52;105745;1277;23192;-83
2022/09/18 11:40:59;;;;;;;13.00;1.50;;;;;;;13.68;70.31;98141.46;105612;1277;23911;-81
2022/09/18 11:44:23;;;;;;;8.70;1.30;;;;;;;13.56;70.57;98143.73;105909;1280;22579;-81
2022/09/18 11:47:22;;;;;;;9.00;1.10;;;;;;;13.58;70.08;98150.16;105815;1277;23392;-80
2022/09/18 11:50:08;;;;;;;5.80;1.00;;;;;;;13.65;69.53;98153.00;105781;1277;22560;-83
2022/09/18 11:52:48;;;;;;;7.30;0.90;;;;;;;13.44;69.21;98140.41;105842;1280;22680;-80
2022/09/18 11:55:42;;;;;;;5.00;0.90;;;;;;;13.20;69.41;98137.89;105785;1277;22583;-78
2022/09/18 11:58:57;;;;;;;5.70;1.10;;;;;;;13.14;69.94;98137.40;105621;1277;24268;-81
2022/09/18 12:02:00;;;;;;;6.60;1.00;;;;;;;13.44;69.21;98133.67;105731;1277;24418;-80
2022/09/18 12:05:12;;;;;;;4.20;0.90;;;;;;;13.57;69.31;98130.75;105851;1277;25472;-83
2022/09/18 12:08:00;;;;;;;4.80;0.90;;;;;;;13.75;69.31;98139.44;105693;1278;25340;-81
2022/09/18 12:10:59;;;;;;;5.20;1.10;;;;;;;13.86;69.06;98136.77;105731;1277;24675;-81
2022/09/18 12:14:12;;;;;;;7.30;1.00;;;;;;;14.00;68.67;98144.16;105704;1273;23065;-81
2022/09/18 12:17:25;;;;;;;6.20;1.50;;;;;;;14.11;68.98;98143.42;105998;1274;24403;-78
2022/09/18 12:20:20;;;;;;;7.20;1.30;;;;;;;14.00;68.60;98141.08;106176;1274;22581;-83
2022/09/18 12:23:13;;;;;;;6.70;0.90;;;;;;;13.68;68.49;98146.08;106153;1274;22539;-78
2022/09/18 12:26:14;;;;;;;6.30;0.90;;;;;;;13.43;68.72;98148.58;106135;1274;22535;-82
2022/09/18 12:29:11;;;;;;;5.60;0.80;;;;;;;13.23;68.86;98162.10;106046;1274;26667;-84
2022/09/18 12:32:06;;;;;;;5.40;0.80;;;;;;;13.00;68.74;98165.05;106086;1273;26732;-82
2022/09/18 12:35:13;;;;;;;;;;;;;;;;;;;;;
2022/09/18 12:38:13;;;;;;;4.80;1.00;;;;;;;13.21;69.62;98166.22;105941;1280;24267;-81
2022/09/18 12:41:18;;;;;;;5.20;0.70;;;;;;;13.40;69.40;98163.89;106150;1278;24515;-81
2022/09/18 12:44:13;;;;;;;2.70;0.70;;;;;;;13.34;69.07;98158.80;105605;1281;22813;-80
2022/09/18 12:47:07;;;;;;;4.60;0.70;;;;;;;13.50;69.31;98154.81;105748;1277;22545;-83
2022/09/18 12:50:14;;;;;;;3.10;0.40;;;;;;;13.53;69.07;98151.01;105672;1280;24460;-82
2022/09/18 12:53:43;;;;;;;6.80;0.80;;;;;;;13.60;69.19;98151.89;105659;1279;25513;-82
2022/09/18 12:56:53;;;;;;;;;;;;;;;;;;;;;
2022/09/18 13:00:11;;;;;;;4.70;0.70;;;;;;;14.03;68.36;98149.55;104965;1285;24294;-81
2022/09/18 13:03:29;;;;;;;7.30;0.80;;;;;;;14.01;67.70;98152.94;104855;1285;25544;-81
2022/09/18 13:06:11;;;;;;;5.10;0.80;;;;;;;13.79;68.21;98148.05;104723;1288;24385;-79
2022/09/18 13:09:19;;;;;;;3.30;0.60;;;;;;;13.90;68.45;98143.59;105007;1284;22553;-81
2022/09/18 13:12:29;;;;;;;5.20;0.70;;;;;;;14.08;68.51;98147.27;105059;1284;22550;-77
2022/09/18 13:15:23;;;;;;;5.90;0.80;;;;;;;14.19;68.19;98141.00;105273;1282;24209;-82
2022/09/18 13:18:26;;;;;;;6.00;0.60;;;;;;;14.24;67.97;98140.56;105391;1282;22785;-82
2022/09/18 13:20:57;;;;;;;4.30;0.60;;;;;;;14.34;68.37;98135.14;105321;1284;22559;-83
2022/09/18 13:23:53;;;;;;;7.30;0.90;;;;;;;14.52;68.17;98140.44;105591;1282;24587;-81
2022/09/18 13:26:29;;;;;;;6.50;1.20;;;;;;;14.62;67.58;98138.71;105819;1281;22763;-83
2022/09/18 13:28:57;;;;;;;6.80;1.20;;;;;;;14.67;67.51;98142.21;105651;1282;24363;-81
2022/09/18 13:31:28;;;;;;;8.00;1.60;;;;;;;14.60;67.38;98139.82;105650;1281;23012;-86
2022/09/18 13:34:15;;;;;;;8.00;2.00;;;;;;;14.41;67.35;98141.80;106106;1273;22564;-82
2022/09/18 13:36:50;;;;;;;6.10;1.00;;;;;;;14.37;67.26;98138.25;106155;1274;25352;-80
2022/09/18 13:39:28;;;;;;;6.40;1.40;;;;;;;14.53;66.68;98136.38;106052;1276;22827;-83
2022/09/18 13:42:00;;;;;;;4.80;1.00;;;;;;;14.58;66.28;98137.73;106226;1273;22631;-79
2022/09/18 13:44:55;;;;;;;4.00;1.00;;;;;;;14.58;66.88;98136.11;106260;1274;22539;-87
2022/09/18 13:47:25;;;;;;;5.10;1.00;;;;;;;14.72;67.09;98137.13;106341;1273;25232;-82
2022/09/18 13:50:32;;;;;;;5.80;0.90;;;;;;;14.68;65.87;98138.98;106250;1274;22564;-84
2022/09/18 13:53:03;;;;;;;7.30;0.90;;;;;;;14.50;66.23;98135.71;106322;1273;24293;-81
2022/09/18 13:55:49;;;;;;;5.70;0.70;;;;;;;14.42;66.26;98134.15;106069;1274;25228;-78
2022/09/18 13:59:03;;;;;;;;;;;;;;;;;;;;;
2022/09/18 14:01:41;;;;;;;5.00;0.70;;;;;;;14.25;66.19;98137.83;106148;1274;22560;-82